sensor_id;sensor_type;location;lat;lon;timestamp;temperature;humidity
21744;DHT22;11034;48.556;9.342;2023-05-31T00:00:57;15.20;99.90
21744;DHT22;11034;48.556;9.342;2023-05-31T00:03:25;15.10;99.90
21744;DHT22;11034;48.556;9.342;2023-05-31T00:05:53;15.10;99.90
21744;DHT22;11034;48.556;9.342;2023-05-31T00:08:21;15.10;99.90
21744;DHT22;11034;48.556;9.342;2023-05-31T00:10:50;15.00;99.90
21744;DHT22;11034;48.556;9.342;2023-05-31T00:13:19;14.90;99.90
21744;DHT22;11034;48.556;9.342;2023-05-31T00:15:47;15.00;99.90
21744;DHT22;11034;48.556;9.342;2023-05-31T00:18:15;14.90;99.90
21744;DHT22;11034;48.556;9.342;2023-05-31T00:20:43;14.90;99.90
21744;DHT22;11034;48.556;9.342;2023-05-31T00:23:11;14.80;99.90
21744;DHT22;11034;48.556;9.342;2023-05-31T00:25:39;14.80;99.90
21744;DHT22;11034;48.556;9.342;2023-05-31T00:28:07;14.70;99.90
21744;DHT22;11034;48.556;9.342;2023-05-31T00:30:37;14.70;99.90
21744;DHT22;11034;48.556;9.342;2023-05-31T00:33:05;14.60;99.90
21744;DHT22;11034;48.556;9.342;2023-05-31T00:35:33;14.50;99.90
21744;DHT22;11034;48.556;9.342;2023-05-31T00:38:03;14.50;99.90
21744;DHT22;11034;48.556;9.342;2023-05-31T00:40:31;14.50;99.90
21744;DHT22;11034;48.556;9.342;2023-05-31T00:42:59;14.50;99.90
21744;DHT22;11034;48.556;9.342;2023-05-31T00:45:28;14.50;99.90
21744;DHT22;11034;48.556;9.342;2023-05-31T00:47:59;14.40;99.90
21744;DHT22;11034;48.556;9.342;2023-05-31T00:50:29;14.50;99.90
21744;DHT22;11034;48.556;9.342;2023-05-31T00:52:58;14.40;99.90
21744;DHT22;11034;48.556;9.342;2023-05-31T00:55:27;14.40;99.90
21744;DHT22;11034;48.556;9.342;2023-05-31T00:57:57;14.40;99.90
21744;DHT22;11034;48.556;9.342;2023-05-31T01:00:25;14.40;99.90
21744;DHT22;11034;48.556;9.342;2023-05-31T01:02:53;14.40;99.90
21744;DHT22;11034;48.556;9.342;2023-05-31T01:05:23;14.40;99.90
21744;DHT22;11034;48.556;9.342;2023-05-31T01:07:51;14.30;99.90
21744;DHT22;11034;48.556;9.342;2023-05-31T01:10:19;14.30;99.90
21744;DHT22;11034;48.556;9.342;2023-05-31T01:12:52;14.40;99.90
21744;DHT22;11034;48.556;9.342;2023-05-31T01:15:25;14.40;99.90
21744;DHT22;11034;48.556;9.342;2023-05-31T01:18:06;14.40;99.90
21744;DHT22;11034;48.556;9.342;2023-05-31T01:20:41;14.40;99.90
21744;DHT22;11034;48.556;9.342;2023-05-31T01:23:29;14.40;99.90
21744;DHT22;11034;48.556;9.342;2023-05-31T01:29:00;14.30;99.90
21744;DHT22;11034;48.556;9.342;2023-05-31T01:31:32;14.30;99.90
21744;DHT22;11034;48.556;9.342;2023-05-31T01:34:03;14.20;99.90
21744;DHT22;11034;48.556;9.342;2023-05-31T01:36:31;14.20;99.90
21744;DHT22;11034;48.556;9.342;2023-05-31T01:39:01;14.20;99.90
21744;DHT22;11034;48.556;9.342;2023-05-31T01:41:31;14.30;99.90
21744;DHT22;11034;48.556;9.342;2023-05-31T01:44:03;14.30;99.90
21744;DHT22;11034;48.556;9.342;2023-05-31T01:46:31;14.30;99.90
21744;DHT22;11034;48.556;9.342;2023-05-31T01:49:01;14.20;99.90
21744;DHT22;11034;48.556;9.342;2023-05-31T01:51:30;14.10;99.90
21744;DHT22;11034;48.556;9.342;2023-05-31T01:54:00;13.90;99.90
21744;DHT22;11034;48.556;9.342;2023-05-31T01:56:30;13.80;99.90
21744;DHT22;11034;48.556;9.342;2023-05-31T01:58:59;13.70;99.90
21744;DHT22;11034;48.556;9.342;2023-05-31T02:01:29;13.70;99.90
21744;DHT22;11034;48.556;9.342;2023-05-31T02:03:57;13.80;99.90
21744;DHT22;11034;48.556;9.342;2023-05-31T02:06:26;13.80;99.90
21744;DHT22;11034;48.556;9.342;2023-05-31T02:08:54;13.70;99.90
21744;DHT22;11034;48.556;9.342;2023-05-31T02:11:22;13.80;99.90
21744;DHT22;11034;48.556;9.342;2023-05-31T02:13:52;13.80;99.90
21744;DHT22;11034;48.556;9.342;2023-05-31T02:16:20;13.70;99.90
21744;DHT22;11034;48.556;9.342;2023-05-31T02:18:49;13.80;99.90
21744;DHT22;11034;48.556;9.342;2023-05-31T02:21:18;14.00;99.90
21744;DHT22;11034;48.556;9.342;2023-05-31T02:23:46;14.00;99.90
21744;DHT22;11034;48.556;9.342;2023-05-31T02:26:15;14.00;99.90
21744;DHT22;11034;48.556;9.342;2023-05-31T02:28:43;13.90;99.90
21744;DHT22;11034;48.556;9.342;2023-05-31T02:31:11;13.90;99.90
21744;DHT22;11034;48.556;9.342;2023-05-31T02:33:40;13.80;99.90
21744;DHT22;11034;48.556;9.342;2023-05-31T02:36:10;13.70;99.90
21744;DHT22;11034;48.556;9.342;2023-05-31T02:38:39;13.60;99.90
21744;DHT22;11034;48.556;9.342;2023-05-31T02:41:07;13.50;99.90
21744;DHT22;11034;48.556;9.342;2023-05-31T02:43:35;13.50;99.90
21744;DHT22;11034;48.556;9.342;2023-05-31T02:46:03;13.50;99.90
21744;DHT22;11034;48.556;9.342;2023-05-31T02:48:31;13.40;99.90
21744;DHT22;11034;48.556;9.342;2023-05-31T02:50:59;13.30;99.90
21744;DHT22;11034;48.556;9.342;2023-05-31T02:53:29;13.40;99.90
21744;DHT22;11034;48.556;9.342;2023-05-31T02:55:57;13.30;99.90
21744;DHT22;11034;48.556;9.342;2023-05-31T02:58:25;13.20;99.90
21744;DHT22;11034;48.556;9.342;2023-05-31T03:00:53;13.10;99.90
21744;DHT22;11034;48.556;9.342;2023-05-31T03:03:21;13.00;99.90
21744;DHT22;11034;48.556;9.342;2023-05-31T03:05:49;12.90;99.90
21744;DHT22;11034;48.556;9.342;2023-05-31T03:08:18;12.90;99.90
21744;DHT22;11034;48.556;9.342;2023-05-31T03:10:48;12.90;99.90
21744;DHT22;11034;48.556;9.342;2023-05-31T03:13:16;12.90;99.90
21744;DHT22;11034;48.556;9.342;2023-05-31T03:15:44;12.90;99.90
21744;DHT22;11034;48.556;9.342;2023-05-31T03:18:13;13.00;99.90
21744;DHT22;11034;48.556;9.342;2023-05-31T03:20:41;13.00;99.90
21744;DHT22;11034;48.556;9.342;2023-05-31T03:23:09;13.10;99.90
21744;DHT22;11034;48.556;9.342;2023-05-31T03:25:37;13.20;99.90
21744;DHT22;11034;48.556;9.342;2023-05-31T03:28:07;13.10;99.90
21744;DHT22;11034;48.556;9.342;2023-05-31T03:30:35;12.90;99.90
21744;DHT22;11034;48.556;9.342;2023-05-31T03:33:03;12.80;99.90
21744;DHT22;11034;48.556;9.342;2023-05-31T03:35:31;12.70;99.90
21744;DHT22;11034;48.556;9.342;2023-05-31T03:37:59;12.60;99.90
21744;DHT22;11034;48.556;9.342;2023-05-31T03:40:27;12.50;99.90
21744;DHT22;11034;48.556;9.342;2023-05-31T03:42:55;12.40;99.90
21744;DHT22;11034;48.556;9.342;2023-05-31T03:45:25;12.30;99.90
21744;DHT22;11034;48.556;9.342;2023-05-31T03:47:53;12.30;99.90
21744;DHT22;11034;48.556;9.342;2023-05-31T03:50:21;12.30;99.90
21744;DHT22;11034;48.556;9.342;2023-05-31T03:52:49;12.30;99.90
21744;DHT22;11034;48.556;9.342;2023-05-31T03:55:17;12.20;99.90
21744;DHT22;11034;48.556;9.342;2023-05-31T03:57:47;12.20;99.90
21744;DHT22;11034;48.556;9.342;2023-05-31T04:00:16;12.20;99.90
21744;DHT22;11034;48.556;9.342;2023-05-31T04:02:45;12.30;99.90
21744;DHT22;11034;48.556;9.342;2023-05-31T04:05:29;12.30;99.90
21744;DHT22;11034;48.556;9.342;2023-05-31T04:07:57;12.40;99.90
21744;DHT22;11034;48.556;9.342;2023-05-31T04:10:26;12.50;99.90
21744;DHT22;11034;48.556;9.342;2023-05-31T04:12:54;12.70;99.90
21744;DHT22;11034;48.556;9.342;2023-05-31T04:15:22;12.80;99.90
21744;DHT22;11034;48.556;9.342;2023-05-31T04:17:51;12.90;99.90
21744;DHT22;11034;48.556;9.342;2023-05-31T04:20:19;13.00;99.90
21744;DHT22;11034;48.556;9.342;2023-05-31T04:22:47;13.20;99.90
21744;DHT22;11034;48.556;9.342;2023-05-31T04:25:16;13.80;99.90
21744;DHT22;11034;48.556;9.342;2023-05-31T04:27:44;14.60;99.90
21744;DHT22;11034;48.556;9.342;2023-05-31T04:30:12;15.60;99.90
21744;DHT22;11034;48.556;9.342;2023-05-31T04:32:41;16.20;99.90
21744;DHT22;11034;48.556;9.342;2023-05-31T04:35:12;16.80;99.90
21744;DHT22;11034;48.556;9.342;2023-05-31T04:37:40;17.20;99.90
21744;DHT22;11034;48.556;9.342;2023-05-31T04:40:09;17.20;99.90
21744;DHT22;11034;48.556;9.342;2023-05-31T04:42:37;17.60;99.90
21744;DHT22;11034;48.556;9.342;2023-05-31T04:45:08;17.50;99.90
21744;DHT22;11034;48.556;9.342;2023-05-31T04:47:36;18.10;99.90
21744;DHT22;11034;48.556;9.342;2023-05-31T04:50:05;18.10;99.90
21744;DHT22;11034;48.556;9.342;2023-05-31T04:52:34;18.30;99.90
21744;DHT22;11034;48.556;9.342;2023-05-31T04:55:07;19.10;99.90
21744;DHT22;11034;48.556;9.342;2023-05-31T04:57:35;19.70;99.30
21744;DHT22;11034;48.556;9.342;2023-05-31T05:00:04;20.00;99.30
21744;DHT22;11034;48.556;9.342;2023-05-31T05:02:36;20.30;99.10
21744;DHT22;11034;48.556;9.342;2023-05-31T05:05:04;20.50;98.50
21744;DHT22;11034;48.556;9.342;2023-05-31T05:07:35;20.40;98.30
21744;DHT22;11034;48.556;9.342;2023-05-31T05:10:04;20.40;98.20
21744;DHT22;11034;48.556;9.342;2023-05-31T05:12:32;19.80;98.70
21744;DHT22;11034;48.556;9.342;2023-05-31T05:15:00;19.70;98.70
21744;DHT22;11034;48.556;9.342;2023-05-31T05:17:28;20.30;99.40
21744;DHT22;11034;48.556;9.342;2023-05-31T05:19:56;20.30;99.00
21744;DHT22;11034;48.556;9.342;2023-05-31T05:22:25;20.60;98.70
21744;DHT22;11034;48.556;9.342;2023-05-31T05:24:54;21.30;98.10
21744;DHT22;11034;48.556;9.342;2023-05-31T05:27:22;21.20;98.50
21744;DHT22;11034;48.556;9.342;2023-05-31T05:29:50;20.80;98.50
21744;DHT22;11034;48.556;9.342;2023-05-31T05:32:18;21.60;98.40
21744;DHT22;11034;48.556;9.342;2023-05-31T05:34:46;21.50;97.90
21744;DHT22;11034;48.556;9.342;2023-05-31T05:37:14;21.50;98.30
21744;DHT22;11034;48.556;9.342;2023-05-31T05:39:42;21.50;98.30
21744;DHT22;11034;48.556;9.342;2023-05-31T05:42:11;21.30;98.10
21744;DHT22;11034;48.556;9.342;2023-05-31T05:44:39;21.40;98.40
21744;DHT22;11034;48.556;9.342;2023-05-31T05:47:08;21.60;98.30
21744;DHT22;11034;48.556;9.342;2023-05-31T05:49:36;22.00;97.60
21744;DHT22;11034;48.556;9.342;2023-05-31T05:52:04;22.20;97.70
21744;DHT22;11034;48.556;9.342;2023-05-31T05:54:32;22.50;97.50
21744;DHT22;11034;48.556;9.342;2023-05-31T05:57:02;22.10;97.10
21744;DHT22;11034;48.556;9.342;2023-05-31T05:59:32;21.70;97.70
21744;DHT22;11034;48.556;9.342;2023-05-31T06:01:59;21.70;98.10
21744;DHT22;11034;48.556;9.342;2023-05-31T06:04:27;22.20;98.00
21744;DHT22;11034;48.556;9.342;2023-05-31T06:06:55;21.90;98.10
21744;DHT22;11034;48.556;9.342;2023-05-31T06:09:23;22.20;98.20
21744;DHT22;11034;48.556;9.342;2023-05-31T06:11:51;22.80;97.40
21744;DHT22;11034;48.556;9.342;2023-05-31T06:14:19;23.30;96.80
21744;DHT22;11034;48.556;9.342;2023-05-31T06:16:49;23.30;96.90
21744;DHT22;11034;48.556;9.342;2023-05-31T06:19:17;23.50;96.70
21744;DHT22;11034;48.556;9.342;2023-05-31T06:21:45;23.80;96.10
21744;DHT22;11034;48.556;9.342;2023-05-31T06:24:14;24.00;96.20
21744;DHT22;11034;48.556;9.342;2023-05-31T06:26:42;23.70;96.50
21744;DHT22;11034;48.556;9.342;2023-05-31T06:29:10;23.80;96.30
21744;DHT22;11034;48.556;9.342;2023-05-31T06:31:38;23.60;96.30
21744;DHT22;11034;48.556;9.342;2023-05-31T06:34:08;24.40;95.90
21744;DHT22;11034;48.556;9.342;2023-05-31T06:36:36;24.30;96.20
21744;DHT22;11034;48.556;9.342;2023-05-31T06:39:04;24.50;95.80
21744;DHT22;11034;48.556;9.342;2023-05-31T06:41:32;24.20;96.10
21744;DHT22;11034;48.556;9.342;2023-05-31T06:44:01;23.90;96.10
21744;DHT22;11034;48.556;9.342;2023-05-31T06:46:29;23.70;96.10
21744;DHT22;11034;48.556;9.342;2023-05-31T06:48:58;23.20;96.90
21744;DHT22;11034;48.556;9.342;2023-05-31T06:51:39;22.50;97.80
21744;DHT22;11034;48.556;9.342;2023-05-31T06:54:08;22.00;98.40
21744;DHT22;11034;48.556;9.342;2023-05-31T06:56:36;22.20;98.40
21744;DHT22;11034;48.556;9.342;2023-05-31T06:59:04;22.40;97.70
21744;DHT22;11034;48.556;9.342;2023-05-31T07:01:32;22.40;98.30
21744;DHT22;11034;48.556;9.342;2023-05-31T07:04:00;22.60;98.10
21744;DHT22;11034;48.556;9.342;2023-05-31T07:06:28;22.40;98.20
21744;DHT22;11034;48.556;9.342;2023-05-31T07:08:58;22.90;98.20
21744;DHT22;11034;48.556;9.342;2023-05-31T07:11:26;22.80;98.00
21744;DHT22;11034;48.556;9.342;2023-05-31T07:13:54;22.80;97.90
21744;DHT22;11034;48.556;9.342;2023-05-31T07:16:26;23.00;98.30
21744;DHT22;11034;48.556;9.342;2023-05-31T07:18:54;22.70;98.60
21744;DHT22;11034;48.556;9.342;2023-05-31T07:21:22;23.80;97.90
21744;DHT22;11034;48.556;9.342;2023-05-31T07:23:51;23.80;97.30
21744;DHT22;11034;48.556;9.342;2023-05-31T07:26:20;23.50;97.40
21744;DHT22;11034;48.556;9.342;2023-05-31T07:28:49;23.40;97.10
21744;DHT22;11034;48.556;9.342;2023-05-31T07:31:19;23.60;97.40
21744;DHT22;11034;48.556;9.342;2023-05-31T07:33:48;23.80;97.70
21744;DHT22;11034;48.556;9.342;2023-05-31T07:36:16;24.40;97.10
21744;DHT22;11034;48.556;9.342;2023-05-31T07:38:44;24.30;96.60
21744;DHT22;11034;48.556;9.342;2023-05-31T07:41:12;24.20;96.60
21744;DHT22;11034;48.556;9.342;2023-05-31T07:43:43;24.10;96.50
21744;DHT22;11034;48.556;9.342;2023-05-31T07:46:12;23.80;96.90
21744;DHT22;11034;48.556;9.342;2023-05-31T07:48:40;24.50;96.50
21744;DHT22;11034;48.556;9.342;2023-05-31T07:51:08;24.90;95.90
21744;DHT22;11034;48.556;9.342;2023-05-31T07:53:36;24.90;95.80
21744;DHT22;11034;48.556;9.342;2023-05-31T07:56:07;24.90;95.10
21744;DHT22;11034;48.556;9.342;2023-05-31T07:58:35;25.00;95.80
21744;DHT22;11034;48.556;9.342;2023-05-31T08:01:04;24.70;94.90
21744;DHT22;11034;48.556;9.342;2023-05-31T08:03:33;24.70;96.00
21744;DHT22;11034;48.556;9.342;2023-05-31T08:06:01;25.20;95.90
21744;DHT22;11034;48.556;9.342;2023-05-31T08:08:29;24.50;95.40
21744;DHT22;11034;48.556;9.342;2023-05-31T08:10:59;24.50;96.20
21744;DHT22;11034;48.556;9.342;2023-05-31T08:13:28;24.40;94.20
21744;DHT22;11034;48.556;9.342;2023-05-31T08:15:57;24.10;95.70
21744;DHT22;11034;48.556;9.342;2023-05-31T08:18:26;24.40;95.60
21744;DHT22;11034;48.556;9.342;2023-05-31T08:20:54;24.60;95.20
21744;DHT22;11034;48.556;9.342;2023-05-31T08:23:22;24.40;94.50
21744;DHT22;11034;48.556;9.342;2023-05-31T08:25:50;23.40;95.70
21744;DHT22;11034;48.556;9.342;2023-05-31T08:28:20;23.20;95.90
21744;DHT22;11034;48.556;9.342;2023-05-31T08:30:48;23.30;95.50
21744;DHT22;11034;48.556;9.342;2023-05-31T08:33:16;23.40;95.10
21744;DHT22;11034;48.556;9.342;2023-05-31T08:35:45;23.10;95.70
21744;DHT22;11034;48.556;9.342;2023-05-31T08:38:13;23.20;95.60
21744;DHT22;11034;48.556;9.342;2023-05-31T08:40:41;22.90;96.10
21744;DHT22;11034;48.556;9.342;2023-05-31T08:43:12;22.40;96.20
21744;DHT22;11034;48.556;9.342;2023-05-31T08:45:49;21.90;96.70
21744;DHT22;11034;48.556;9.342;2023-05-31T08:48:23;21.60;97.10
21744;DHT22;11034;48.556;9.342;2023-05-31T08:50:54;21.10;97.00
21744;DHT22;11034;48.556;9.342;2023-05-31T08:53:24;20.70;97.30
21744;DHT22;11034;48.556;9.342;2023-05-31T08:55:53;20.80;98.30
21744;DHT22;11034;48.556;9.342;2023-05-31T08:58:22;21.00;98.50
21744;DHT22;11034;48.556;9.342;2023-05-31T09:00:51;20.90;97.10
21744;DHT22;11034;48.556;9.342;2023-05-31T09:03:21;21.10;97.40
21744;DHT22;11034;48.556;9.342;2023-05-31T09:05:55;21.10;97.60
21744;DHT22;11034;48.556;9.342;2023-05-31T09:08:23;21.00;97.40
21744;DHT22;11034;48.556;9.342;2023-05-31T09:10:51;21.00;98.10
21744;DHT22;11034;48.556;9.342;2023-05-31T09:13:20;21.00;97.60
21744;DHT22;11034;48.556;9.342;2023-05-31T09:15:49;21.00;97.00
21744;DHT22;11034;48.556;9.342;2023-05-31T09:18:20;21.20;97.90
21744;DHT22;11034;48.556;9.342;2023-05-31T09:20:49;21.30;97.30
21744;DHT22;11034;48.556;9.342;2023-05-31T09:23:20;21.40;97.20
21744;DHT22;11034;48.556;9.342;2023-05-31T09:25:50;21.10;98.00
21744;DHT22;11034;48.556;9.342;2023-05-31T09:28:18;21.30;96.90
21744;DHT22;11034;48.556;9.342;2023-05-31T09:31:00;21.30;97.60
21744;DHT22;11034;48.556;9.342;2023-05-31T09:33:40;21.60;96.50
21744;DHT22;11034;48.556;9.342;2023-05-31T09:36:09;21.40;96.90
21744;DHT22;11034;48.556;9.342;2023-05-31T09:38:39;21.60;96.60
21744;DHT22;11034;48.556;9.342;2023-05-31T09:41:14;21.50;97.50
21744;DHT22;11034;48.556;9.342;2023-05-31T09:43:44;21.80;97.70
21744;DHT22;11034;48.556;9.342;2023-05-31T09:46:14;22.00;97.70
21744;DHT22;11034;48.556;9.342;2023-05-31T09:48:43;21.90;95.90
21744;DHT22;11034;48.556;9.342;2023-05-31T09:51:12;21.70;96.90
21744;DHT22;11034;48.556;9.342;2023-05-31T09:53:42;21.80;96.90
21744;DHT22;11034;48.556;9.342;2023-05-31T09:56:17;21.70;95.50
21744;DHT22;11034;48.556;9.342;2023-05-31T09:58:45;21.60;95.70
21744;DHT22;11034;48.556;9.342;2023-05-31T10:01:14;21.40;96.70
21744;DHT22;11034;48.556;9.342;2023-05-31T10:03:43;21.60;96.50
21744;DHT22;11034;48.556;9.342;2023-05-31T10:06:15;21.60;96.30
21744;DHT22;11034;48.556;9.342;2023-05-31T10:08:45;21.80;97.00
21744;DHT22;11034;48.556;9.342;2023-05-31T10:11:16;21.90;96.60
21744;DHT22;11034;48.556;9.342;2023-05-31T10:13:47;22.10;95.50
21744;DHT22;11034;48.556;9.342;2023-05-31T10:16:19;21.90;95.60
21744;DHT22;11034;48.556;9.342;2023-05-31T10:18:50;21.70;95.10
21744;DHT22;11034;48.556;9.342;2023-05-31T10:21:21;21.60;95.60
21744;DHT22;11034;48.556;9.342;2023-05-31T10:23:56;22.00;96.80
21744;DHT22;11034;48.556;9.342;2023-05-31T10:26:31;22.10;95.20
21744;DHT22;11034;48.556;9.342;2023-05-31T10:29:07;22.20;95.30
21744;DHT22;11034;48.556;9.342;2023-05-31T10:31:41;22.10;96.40
21744;DHT22;11034;48.556;9.342;2023-05-31T10:34:15;22.00;95.10
21744;DHT22;11034;48.556;9.342;2023-05-31T10:36:46;22.20;95.30
21744;DHT22;11034;48.556;9.342;2023-05-31T10:39:21;22.30;95.10
21744;DHT22;11034;48.556;9.342;2023-05-31T10:41:58;22.50;95.60
21744;DHT22;11034;48.556;9.342;2023-05-31T10:44:33;22.30;95.10
21744;DHT22;11034;48.556;9.342;2023-05-31T10:47:05;22.00;94.60
21744;DHT22;11034;48.556;9.342;2023-05-31T10:49:36;22.00;95.20
21744;DHT22;11034;48.556;9.342;2023-05-31T10:52:09;22.10;95.20
21744;DHT22;11034;48.556;9.342;2023-05-31T10:54:38;22.40;95.40
21744;DHT22;11034;48.556;9.342;2023-05-31T10:57:07;22.40;94.10
21744;DHT22;11034;48.556;9.342;2023-05-31T10:59:41;22.40;94.70
21744;DHT22;11034;48.556;9.342;2023-05-31T11:02:10;22.60;95.80
21744;DHT22;11034;48.556;9.342;2023-05-31T11:04:38;22.80;94.70
21744;DHT22;11034;48.556;9.342;2023-05-31T11:07:15;22.70;94.60
21744;DHT22;11034;48.556;9.342;2023-05-31T11:09:58;22.70;93.70
21744;DHT22;11034;48.556;9.342;2023-05-31T11:12:32;22.60;93.20
21744;DHT22;11034;48.556;9.342;2023-05-31T11:15:01;22.70;93.90
21744;DHT22;11034;48.556;9.342;2023-05-31T11:17:38;22.90;93.50
21744;DHT22;11034;48.556;9.342;2023-05-31T11:20:09;22.80;93.30
21744;DHT22;11034;48.556;9.342;2023-05-31T11:22:42;22.60;93.40
21744;DHT22;11034;48.556;9.342;2023-05-31T11:25:18;22.60;92.80
21744;DHT22;11034;48.556;9.342;2023-05-31T11:28:05;22.70;93.90
21744;DHT22;11034;48.556;9.342;2023-05-31T11:30:37;22.50;93.10
21744;DHT22;11034;48.556;9.342;2023-05-31T11:33:16;22.70;93.70
21744;DHT22;11034;48.556;9.342;2023-05-31T11:35:45;22.70;93.00
21744;DHT22;11034;48.556;9.342;2023-05-31T11:38:14;22.70;93.50
21744;DHT22;11034;48.556;9.342;2023-05-31T11:40:43;22.90;93.30
21744;DHT22;11034;48.556;9.342;2023-05-31T11:43:14;22.90;92.70
21744;DHT22;11034;48.556;9.342;2023-05-31T11:45:46;22.70;92.50
21744;DHT22;11034;48.556;9.342;2023-05-31T11:48:34;22.60;92.40
21744;DHT22;11034;48.556;9.342;2023-05-31T11:51:03;22.70;93.60
21744;DHT22;11034;48.556;9.342;2023-05-31T11:53:31;23.00;93.00
21744;DHT22;11034;48.556;9.342;2023-05-31T11:56:01;22.90;93.10
21744;DHT22;11034;48.556;9.342;2023-05-31T11:58:29;23.00;92.30
21744;DHT22;11034;48.556;9.342;2023-05-31T12:00:58;23.20;92.50
21744;DHT22;11034;48.556;9.342;2023-05-31T12:03:29;23.50;92.00
21744;DHT22;11034;48.556;9.342;2023-05-31T12:05:58;23.40;92.10
21744;DHT22;11034;48.556;9.342;2023-05-31T12:08:31;23.20;92.10
21744;DHT22;11034;48.556;9.342;2023-05-31T12:11:04;23.10;91.90
21744;DHT22;11034;48.556;9.342;2023-05-31T12:13:33;23.10;91.90
21744;DHT22;11034;48.556;9.342;2023-05-31T12:16:03;23.20;92.10
21744;DHT22;11034;48.556;9.342;2023-05-31T12:18:32;23.40;92.40
21744;DHT22;11034;48.556;9.342;2023-05-31T12:21:05;23.60;92.30
21744;DHT22;11034;48.556;9.342;2023-05-31T12:26:18;23.20;92.10
21744;DHT22;11034;48.556;9.342;2023-05-31T12:28:46;23.10;92.50
21744;DHT22;11034;48.556;9.342;2023-05-31T12:31:22;23.30;92.90
21744;DHT22;11034;48.556;9.342;2023-05-31T12:33:52;23.40;92.20
21744;DHT22;11034;48.556;9.342;2023-05-31T12:36:25;23.40;91.40
21744;DHT22;11034;48.556;9.342;2023-05-31T12:38:55;23.30;91.60
21744;DHT22;11034;48.556;9.342;2023-05-31T12:41:24;23.40;92.60
21744;DHT22;11034;48.556;9.342;2023-05-31T12:43:54;23.70;92.60
21744;DHT22;11034;48.556;9.342;2023-05-31T12:46:22;23.60;90.60
21744;DHT22;11034;48.556;9.342;2023-05-31T12:48:50;23.40;90.80
21744;DHT22;11034;48.556;9.342;2023-05-31T12:51:21;23.20;90.70
21744;DHT22;11034;48.556;9.342;2023-05-31T12:53:49;23.20;90.00
21744;DHT22;11034;48.556;9.342;2023-05-31T12:56:18;23.10;90.10
21744;DHT22;11034;48.556;9.342;2023-05-31T12:58:48;23.30;91.30
21744;DHT22;11034;48.556;9.342;2023-05-31T13:01:16;23.40;91.00
21744;DHT22;11034;48.556;9.342;2023-05-31T13:03:44;23.50;90.30
21744;DHT22;11034;48.556;9.342;2023-05-31T13:06:12;23.30;90.10
21744;DHT22;11034;48.556;9.342;2023-05-31T13:08:40;23.30;91.20
21744;DHT22;11034;48.556;9.342;2023-05-31T13:11:11;23.20;88.60
21744;DHT22;11034;48.556;9.342;2023-05-31T13:13:39;23.10;88.20
21744;DHT22;11034;48.556;9.342;2023-05-31T13:16:09;23.30;90.10
21744;DHT22;11034;48.556;9.342;2023-05-31T13:18:37;23.40;89.40
21744;DHT22;11034;48.556;9.342;2023-05-31T13:21:05;23.50;89.30
21744;DHT22;11034;48.556;9.342;2023-05-31T13:23:33;23.60;90.30
21744;DHT22;11034;48.556;9.342;2023-05-31T13:26:01;23.60;90.30
21744;DHT22;11034;48.556;9.342;2023-05-31T13:28:29;23.60;88.90
21744;DHT22;11034;48.556;9.342;2023-05-31T13:30:57;23.50;89.00
21744;DHT22;11034;48.556;9.342;2023-05-31T13:33:27;23.50;88.30
21744;DHT22;11034;48.556;9.342;2023-05-31T13:35:57;23.50;87.10
21744;DHT22;11034;48.556;9.342;2023-05-31T13:38:26;23.60;86.50
21744;DHT22;11034;48.556;9.342;2023-05-31T13:40:54;23.60;86.50
21744;DHT22;11034;48.556;9.342;2023-05-31T13:43:22;23.80;87.70
21744;DHT22;11034;48.556;9.342;2023-05-31T13:45:51;23.70;83.30
21744;DHT22;11034;48.556;9.342;2023-05-31T13:48:19;23.50;83.50
21744;DHT22;11034;48.556;9.342;2023-05-31T13:50:49;23.50;84.00
21744;DHT22;11034;48.556;9.342;2023-05-31T13:53:17;23.80;83.50
21744;DHT22;11034;48.556;9.342;2023-05-31T13:55:45;23.90;85.30
21744;DHT22;11034;48.556;9.342;2023-05-31T13:58:28;24.00;86.10
21744;DHT22;11034;48.556;9.342;2023-05-31T14:00:57;23.80;81.20
21744;DHT22;11034;48.556;9.342;2023-05-31T14:03:25;23.60;82.40
21744;DHT22;11034;48.556;9.342;2023-05-31T14:05:55;23.60;83.90
21744;DHT22;11034;48.556;9.342;2023-05-31T14:08:24;23.60;83.50
21744;DHT22;11034;48.556;9.342;2023-05-31T14:10:52;23.70;82.90
21744;DHT22;11034;48.556;9.342;2023-05-31T14:13:20;23.90;83.00
21744;DHT22;11034;48.556;9.342;2023-05-31T14:15:48;23.80;82.80
21744;DHT22;11034;48.556;9.342;2023-05-31T14:18:16;23.80;84.90
21744;DHT22;11034;48.556;9.342;2023-05-31T14:20:44;23.80;87.00
21744;DHT22;11034;48.556;9.342;2023-05-31T14:23:14;23.90;86.30
21744;DHT22;11034;48.556;9.342;2023-05-31T14:25:42;24.00;85.50
21744;DHT22;11034;48.556;9.342;2023-05-31T14:28:10;24.00;84.20
21744;DHT22;11034;48.556;9.342;2023-05-31T14:30:38;24.10;86.30
21744;DHT22;11034;48.556;9.342;2023-05-31T14:33:06;23.70;83.30
21744;DHT22;11034;48.556;9.342;2023-05-31T14:35:35;23.60;85.20
21744;DHT22;11034;48.556;9.342;2023-05-31T14:38:03;23.80;86.60
21744;DHT22;11034;48.556;9.342;2023-05-31T14:40:53;23.90;85.30
21744;DHT22;11034;48.556;9.342;2023-05-31T14:43:21;23.80;82.80
21744;DHT22;11034;48.556;9.342;2023-05-31T14:45:49;23.80;82.90
21744;DHT22;11034;48.556;9.342;2023-05-31T14:48:17;23.90;83.10
21744;DHT22;11034;48.556;9.342;2023-05-31T14:50:45;23.90;86.20
21744;DHT22;11034;48.556;9.342;2023-05-31T14:53:13;23.70;85.00
21744;DHT22;11034;48.556;9.342;2023-05-31T14:55:41;23.80;84.00
21744;DHT22;11034;48.556;9.342;2023-05-31T14:58:11;23.90;85.10
21744;DHT22;11034;48.556;9.342;2023-05-31T15:00:39;23.70;83.40
21744;DHT22;11034;48.556;9.342;2023-05-31T15:03:07;23.70;84.20
21744;DHT22;11034;48.556;9.342;2023-05-31T15:05:35;23.50;82.80
21744;DHT22;11034;48.556;9.342;2023-05-31T15:08:03;23.60;83.70
21744;DHT22;11034;48.556;9.342;2023-05-31T15:10:32;23.70;83.40
21744;DHT22;11034;48.556;9.342;2023-05-31T15:13:00;23.70;83.70
21744;DHT22;11034;48.556;9.342;2023-05-31T15:15:29;23.80;84.30
21744;DHT22;11034;48.556;9.342;2023-05-31T15:17:57;23.70;83.30
21744;DHT22;11034;48.556;9.342;2023-05-31T15:20:26;23.80;84.30
21744;DHT22;11034;48.556;9.342;2023-05-31T15:22:54;23.70;83.80
21744;DHT22;11034;48.556;9.342;2023-05-31T15:25:22;23.70;83.40
21744;DHT22;11034;48.556;9.342;2023-05-31T15:27:50;23.70;83.50
21744;DHT22;11034;48.556;9.342;2023-05-31T15:30:18;23.90;83.70
21744;DHT22;11034;48.556;9.342;2023-05-31T15:32:47;23.90;84.80
21744;DHT22;11034;48.556;9.342;2023-05-31T15:35:15;24.00;82.70
21744;DHT22;11034;48.556;9.342;2023-05-31T15:37:44;23.90;81.50
21744;DHT22;11034;48.556;9.342;2023-05-31T15:40:12;23.90;81.50
21744;DHT22;11034;48.556;9.342;2023-05-31T15:42:40;24.00;80.30
21744;DHT22;11034;48.556;9.342;2023-05-31T15:45:09;24.00;79.60
21744;DHT22;11034;48.556;9.342;2023-05-31T15:47:37;23.80;80.70
21744;DHT22;11034;48.556;9.342;2023-05-31T15:50:07;23.70;82.10